sensor_id;sensor_type;location;lat;lon;timestamp;temperature;humidity
30893;DHT22;17595;50.884;4.346;2022-08-01T00:01:04;21.80;99.90
30893;DHT22;17595;50.884;4.346;2022-08-01T00:03:30;21.90;99.90
30893;DHT22;17595;50.884;4.346;2022-08-01T00:05:55;21.90;99.90
30893;DHT22;17595;50.884;4.346;2022-08-01T00:08:21;21.90;99.90
30893;DHT22;17595;50.884;4.346;2022-08-01T00:10:46;22.00;99.90
30893;DHT22;17595;50.884;4.346;2022-08-01T00:13:12;22.00;99.90
30893;DHT22;17595;50.884;4.346;2022-08-01T00:15:38;21.90;99.90
30893;DHT22;17595;50.884;4.346;2022-08-01T00:18:04;21.70;99.90
30893;DHT22;17595;50.884;4.346;2022-08-01T00:20:29;21.60;99.90
30893;DHT22;17595;50.884;4.346;2022-08-01T00:22:55;21.70;99.90
30893;DHT22;17595;50.884;4.346;2022-08-01T00:25:20;21.70;99.90
30893;DHT22;17595;50.884;4.346;2022-08-01T00:27:46;21.60;99.90
30893;DHT22;17595;50.884;4.346;2022-08-01T00:30:12;21.70;99.90
30893;DHT22;17595;50.884;4.346;2022-08-01T00:32:37;21.60;99.90
30893;DHT22;17595;50.884;4.346;2022-08-01T00:35:03;21.60;99.90
30893;DHT22;17595;50.884;4.346;2022-08-01T00:37:29;21.60;99.90
30893;DHT22;17595;50.884;4.346;2022-08-01T00:39:54;21.70;99.90
30893;DHT22;17595;50.884;4.346;2022-08-01T00:42:20;21.70;99.90
30893;DHT22;17595;50.884;4.346;2022-08-01T00:44:46;21.80;99.90
30893;DHT22;17595;50.884;4.346;2022-08-01T00:47:11;21.90;99.90
30893;DHT22;17595;50.884;4.346;2022-08-01T00:49:37;21.90;99.90
30893;DHT22;17595;50.884;4.346;2022-08-01T00:52:03;21.90;99.90
30893;DHT22;17595;50.884;4.346;2022-08-01T00:54:30;21.90;99.90
30893;DHT22;17595;50.884;4.346;2022-08-01T00:56:57;22.10;99.90
30893;DHT22;17595;50.884;4.346;2022-08-01T00:59:23;22.10;99.90
30893;DHT22;17595;50.884;4.346;2022-08-01T01:01:49;22.00;99.90
30893;DHT22;17595;50.884;4.346;2022-08-01T01:04:16;21.80;99.90
30893;DHT22;17595;50.884;4.346;2022-08-01T01:09:32;21.70;99.90
30893;DHT22;17595;50.884;4.346;2022-08-01T01:14:56;21.60;99.90
30893;DHT22;17595;50.884;4.346;2022-08-01T01:17:31;21.70;99.90
30893;DHT22;17595;50.884;4.346;2022-08-01T01:19:59;21.60;99.90
30893;DHT22;17595;50.884;4.346;2022-08-01T01:27:57;21.30;99.90
30893;DHT22;17595;50.884;4.346;2022-08-01T01:30:28;21.30;99.90
30893;DHT22;17595;50.884;4.346;2022-08-01T01:32:58;21.20;99.90
30893;DHT22;17595;50.884;4.346;2022-08-01T01:35:28;21.20;99.90
30893;DHT22;17595;50.884;4.346;2022-08-01T01:38:00;21.20;99.90
30893;DHT22;17595;50.884;4.346;2022-08-01T01:40:27;21.20;99.90
30893;DHT22;17595;50.884;4.346;2022-08-01T01:42:56;21.20;99.90
30893;DHT22;17595;50.884;4.346;2022-08-01T01:45:24;21.40;99.90
30893;DHT22;17595;50.884;4.346;2022-08-01T01:47:50;21.50;99.90
30893;DHT22;17595;50.884;4.346;2022-08-01T01:50:20;21.40;99.90
30893;DHT22;17595;50.884;4.346;2022-08-01T01:52:46;21.40;99.90
30893;DHT22;17595;50.884;4.346;2022-08-01T01:55:15;21.50;99.90
30893;DHT22;17595;50.884;4.346;2022-08-01T01:57:42;21.70;99.90
30893;DHT22;17595;50.884;4.346;2022-08-01T02:00:11;21.60;99.90
30893;DHT22;17595;50.884;4.346;2022-08-01T02:02:37;21.50;99.90
30893;DHT22;17595;50.884;4.346;2022-08-01T02:05:05;21.60;99.90
30893;DHT22;17595;50.884;4.346;2022-08-01T02:07:33;21.50;99.90
30893;DHT22;17595;50.884;4.346;2022-08-01T02:10:00;21.40;99.90
30893;DHT22;17595;50.884;4.346;2022-08-01T02:12:30;21.30;99.90
30893;DHT22;17595;50.884;4.346;2022-08-01T02:14:58;21.30;99.90
30893;DHT22;17595;50.884;4.346;2022-08-01T02:17:26;21.40;99.90
30893;DHT22;17595;50.884;4.346;2022-08-01T02:19:53;21.50;99.90
30893;DHT22;17595;50.884;4.346;2022-08-01T02:23:06;21.50;99.90
30893;DHT22;17595;50.884;4.346;2022-08-01T02:25:40;21.60;99.90
30893;DHT22;17595;50.884;4.346;2022-08-01T02:28:17;21.70;99.90
30893;DHT22;17595;50.884;4.346;2022-08-01T02:30:47;21.70;99.90
30893;DHT22;17595;50.884;4.346;2022-08-01T02:33:17;21.50;99.90
30893;DHT22;17595;50.884;4.346;2022-08-01T02:35:46;21.30;99.90
30893;DHT22;17595;50.884;4.346;2022-08-01T02:38:14;21.10;99.90
30893;DHT22;17595;50.884;4.346;2022-08-01T02:40:43;21.20;99.90
30893;DHT22;17595;50.884;4.346;2022-08-01T02:43:12;21.40;99.90
30893;DHT22;17595;50.884;4.346;2022-08-01T02:45:43;21.40;99.90
30893;DHT22;17595;50.884;4.346;2022-08-01T02:48:12;21.30;99.90
30893;DHT22;17595;50.884;4.346;2022-08-01T02:50:41;21.30;99.90
30893;DHT22;17595;50.884;4.346;2022-08-01T02:53:07;21.30;99.90
30893;DHT22;17595;50.884;4.346;2022-08-01T02:55:35;21.40;99.90
30893;DHT22;17595;50.884;4.346;2022-08-01T02:58:03;21.20;99.90
30893;DHT22;17595;50.884;4.346;2022-08-01T03:00:30;21.10;99.90
30893;DHT22;17595;50.884;4.346;2022-08-01T03:02:57;21.10;99.90
30893;DHT22;17595;50.884;4.346;2022-08-01T03:05:24;21.00;99.90
30893;DHT22;17595;50.884;4.346;2022-08-01T03:07:52;20.80;99.90
30893;DHT22;17595;50.884;4.346;2022-08-01T03:10:19;20.90;99.90
30893;DHT22;17595;50.884;4.346;2022-08-01T03:12:46;21.00;99.90
30893;DHT22;17595;50.884;4.346;2022-08-01T03:15:14;20.90;99.90
30893;DHT22;17595;50.884;4.346;2022-08-01T03:17:43;20.90;99.90
30893;DHT22;17595;50.884;4.346;2022-08-01T03:20:11;20.90;99.90
30893;DHT22;17595;50.884;4.346;2022-08-01T03:22:39;21.00;99.90
30893;DHT22;17595;50.884;4.346;2022-08-01T03:25:06;21.00;99.90
30893;DHT22;17595;50.884;4.346;2022-08-01T03:27:36;21.10;99.90
30893;DHT22;17595;50.884;4.346;2022-08-01T03:30:04;21.10;99.90
30893;DHT22;17595;50.884;4.346;2022-08-01T03:32:30;21.10;99.90
30893;DHT22;17595;50.884;4.346;2022-08-01T03:34:56;21.20;99.90
30893;DHT22;17595;50.884;4.346;2022-08-01T03:37:27;21.30;99.90
30893;DHT22;17595;50.884;4.346;2022-08-01T03:40:00;21.50;99.90
30893;DHT22;17595;50.884;4.346;2022-08-01T03:42:45;21.40;99.90
30893;DHT22;17595;50.884;4.346;2022-08-01T03:45:19;21.20;99.90
30893;DHT22;17595;50.884;4.346;2022-08-01T03:47:48;21.20;99.90
30893;DHT22;17595;50.884;4.346;2022-08-01T03:50:15;21.20;99.90
30893;DHT22;17595;50.884;4.346;2022-08-01T03:52:43;21.20;99.90
30893;DHT22;17595;50.884;4.346;2022-08-01T03:55:11;21.30;99.90
30893;DHT22;17595;50.884;4.346;2022-08-01T03:57:38;21.40;99.90
30893;DHT22;17595;50.884;4.346;2022-08-01T04:00:06;21.50;99.90
30893;DHT22;17595;50.884;4.346;2022-08-01T04:02:34;21.50;99.90
30893;DHT22;17595;50.884;4.346;2022-08-01T04:05:00;21.20;99.90
30893;DHT22;17595;50.884;4.346;2022-08-01T04:07:28;21.20;99.90
30893;DHT22;17595;50.884;4.346;2022-08-01T04:09:54;21.20;99.90
30893;DHT22;17595;50.884;4.346;2022-08-01T04:12:20;21.30;99.90
30893;DHT22;17595;50.884;4.346;2022-08-01T04:14:46;21.40;99.90
30893;DHT22;17595;50.884;4.346;2022-08-01T04:17:12;21.50;99.90
30893;DHT22;17595;50.884;4.346;2022-08-01T04:19:38;21.50;99.90
30893;DHT22;17595;50.884;4.346;2022-08-01T04:22:04;21.60;99.90
30893;DHT22;17595;50.884;4.346;2022-08-01T04:24:32;21.60;99.90
30893;DHT22;17595;50.884;4.346;2022-08-01T04:27:00;21.60;99.90
30893;DHT22;17595;50.884;4.346;2022-08-01T04:29:27;21.70;99.90
30893;DHT22;17595;50.884;4.346;2022-08-01T04:31:55;21.70;99.90
30893;DHT22;17595;50.884;4.346;2022-08-01T04:34:24;21.60;99.90
30893;DHT22;17595;50.884;4.346;2022-08-01T04:36:52;21.60;99.90
30893;DHT22;17595;50.884;4.346;2022-08-01T04:39:19;21.50;99.90
30893;DHT22;17595;50.884;4.346;2022-08-01T04:41:46;21.60;99.90
30893;DHT22;17595;50.884;4.346;2022-08-01T04:44:13;21.60;99.90
30893;DHT22;17595;50.884;4.346;2022-08-01T04:46:40;21.60;99.90
30893;DHT22;17595;50.884;4.346;2022-08-01T04:49:07;21.70;99.90
30893;DHT22;17595;50.884;4.346;2022-08-01T04:51:34;21.60;99.90
30893;DHT22;17595;50.884;4.346;2022-08-01T04:54:00;21.70;99.90
30893;DHT22;17595;50.884;4.346;2022-08-01T04:56:26;21.70;99.90
30893;DHT22;17595;50.884;4.346;2022-08-01T04:58:52;21.80;99.90
30893;DHT22;17595;50.884;4.346;2022-08-01T05:01:37;21.90;99.90
30893;DHT22;17595;50.884;4.346;2022-08-01T05:04:03;21.90;99.90
30893;DHT22;17595;50.884;4.346;2022-08-01T05:06:29;21.80;99.90
30893;DHT22;17595;50.884;4.346;2022-08-01T05:08:54;21.80;99.90
30893;DHT22;17595;50.884;4.346;2022-08-01T05:11:21;21.70;99.90
30893;DHT22;17595;50.884;4.346;2022-08-01T05:13:47;21.80;99.90
30893;DHT22;17595;50.884;4.346;2022-08-01T05:16:13;21.80;99.90
30893;DHT22;17595;50.884;4.346;2022-08-01T05:18:38;21.70;99.90
30893;DHT22;17595;50.884;4.346;2022-08-01T05:21:04;21.60;99.90
30893;DHT22;17595;50.884;4.346;2022-08-01T05:23:30;21.70;99.90
30893;DHT22;17595;50.884;4.346;2022-08-01T05:25:55;21.70;99.90
30893;DHT22;17595;50.884;4.346;2022-08-01T05:28:21;21.80;99.90
30893;DHT22;17595;50.884;4.346;2022-08-01T05:30:46;21.70;99.90
30893;DHT22;17595;50.884;4.346;2022-08-01T05:33:12;21.60;99.90
30893;DHT22;17595;50.884;4.346;2022-08-01T05:35:38;21.80;99.90
30893;DHT22;17595;50.884;4.346;2022-08-01T05:38:03;21.80;99.90
30893;DHT22;17595;50.884;4.346;2022-08-01T05:40:29;21.90;99.90
30893;DHT22;17595;50.884;4.346;2022-08-01T05:42:54;22.00;99.90
30893;DHT22;17595;50.884;4.346;2022-08-01T05:45:20;21.90;99.90
30893;DHT22;17595;50.884;4.346;2022-08-01T05:47:46;21.80;99.90
30893;DHT22;17595;50.884;4.346;2022-08-01T05:50:12;21.80;99.90
30893;DHT22;17595;50.884;4.346;2022-08-01T05:52:38;21.90;99.90
30893;DHT22;17595;50.884;4.346;2022-08-01T05:55:04;21.70;99.90
30893;DHT22;17595;50.884;4.346;2022-08-01T05:57:30;21.70;99.90
30893;DHT22;17595;50.884;4.346;2022-08-01T05:59:56;21.50;99.90
30893;DHT22;17595;50.884;4.346;2022-08-01T06:02:21;21.50;99.90
30893;DHT22;17595;50.884;4.346;2022-08-01T06:04:47;21.60;99.90
30893;DHT22;17595;50.884;4.346;2022-08-01T06:07:13;21.60;99.90
30893;DHT22;17595;50.884;4.346;2022-08-01T06:09:38;21.60;99.90
30893;DHT22;17595;50.884;4.346;2022-08-01T06:12:04;21.50;99.90
30893;DHT22;17595;50.884;4.346;2022-08-01T06:14:30;21.80;99.90
30893;DHT22;17595;50.884;4.346;2022-08-01T06:16:55;21.90;99.90
30893;DHT22;17595;50.884;4.346;2022-08-01T06:19:21;21.80;99.90
30893;DHT22;17595;50.884;4.346;2022-08-01T06:21:47;21.90;99.90
30893;DHT22;17595;50.884;4.346;2022-08-01T06:24:12;22.10;99.90
30893;DHT22;17595;50.884;4.346;2022-08-01T06:26:38;22.00;99.90
30893;DHT22;17595;50.884;4.346;2022-08-01T06:29:04;22.00;99.90
30893;DHT22;17595;50.884;4.346;2022-08-01T06:31:30;22.10;99.90
30893;DHT22;17595;50.884;4.346;2022-08-01T06:33:56;22.10;99.90
30893;DHT22;17595;50.884;4.346;2022-08-01T06:36:22;22.00;99.90
30893;DHT22;17595;50.884;4.346;2022-08-01T06:38:48;22.10;99.90
30893;DHT22;17595;50.884;4.346;2022-08-01T06:41:13;22.10;99.90
30893;DHT22;17595;50.884;4.346;2022-08-01T06:43:39;22.30;99.90
30893;DHT22;17595;50.884;4.346;2022-08-01T06:46:05;22.20;99.90
30893;DHT22;17595;50.884;4.346;2022-08-01T06:48:30;22.20;99.90
30893;DHT22;17595;50.884;4.346;2022-08-01T06:50:56;22.00;99.90
30893;DHT22;17595;50.884;4.346;2022-08-01T06:53:37;21.90;99.90
30893;DHT22;17595;50.884;4.346;2022-08-01T06:56:04;21.80;99.90
30893;DHT22;17595;50.884;4.346;2022-08-01T06:58:30;21.70;99.90
30893;DHT22;17595;50.884;4.346;2022-08-01T07:00:56;21.80;99.90
30893;DHT22;17595;50.884;4.346;2022-08-01T07:03:22;22.10;99.90
30893;DHT22;17595;50.884;4.346;2022-08-01T07:05:47;22.20;99.90
30893;DHT22;17595;50.884;4.346;2022-08-01T07:08:13;22.00;99.90
30893;DHT22;17595;50.884;4.346;2022-08-01T07:10:38;21.90;99.90
30893;DHT22;17595;50.884;4.346;2022-08-01T07:13:04;21.90;99.90
30893;DHT22;17595;50.884;4.346;2022-08-01T07:15:29;22.00;99.90
30893;DHT22;17595;50.884;4.346;2022-08-01T07:17:55;22.10;99.90
30893;DHT22;17595;50.884;4.346;2022-08-01T07:20:22;22.10;99.90
30893;DHT22;17595;50.884;4.346;2022-08-01T07:22:48;22.20;99.90
30893;DHT22;17595;50.884;4.346;2022-08-01T07:25:14;22.20;99.90
30893;DHT22;17595;50.884;4.346;2022-08-01T07:27:40;22.20;99.90
30893;DHT22;17595;50.884;4.346;2022-08-01T07:30:06;22.10;99.90
30893;DHT22;17595;50.884;4.346;2022-08-01T07:32:31;22.10;99.90
30893;DHT22;17595;50.884;4.346;2022-08-01T07:34:59;22.30;99.90
30893;DHT22;17595;50.884;4.346;2022-08-01T07:37:25;22.50;99.90
30893;DHT22;17595;50.884;4.346;2022-08-01T07:39:50;22.40;99.90
30893;DHT22;17595;50.884;4.346;2022-08-01T07:42:16;22.40;99.90
30893;DHT22;17595;50.884;4.346;2022-08-01T07:44:41;22.40;99.90
30893;DHT22;17595;50.884;4.346;2022-08-01T07:47:09;22.30;99.90
30893;DHT22;17595;50.884;4.346;2022-08-01T07:49:35;22.30;99.90
30893;DHT22;17595;50.884;4.346;2022-08-01T07:52:01;22.40;99.90
30893;DHT22;17595;50.884;4.346;2022-08-01T07:54:27;22.40;99.90
30893;DHT22;17595;50.884;4.346;2022-08-01T07:56:54;22.50;99.90
30893;DHT22;17595;50.884;4.346;2022-08-01T07:59:19;22.70;99.90
30893;DHT22;17595;50.884;4.346;2022-08-01T08:01:55;23.00;99.90
30893;DHT22;17595;50.884;4.346;2022-08-01T08:04:21;23.30;99.90
30893;DHT22;17595;50.884;4.346;2022-08-01T08:06:46;23.50;99.90
30893;DHT22;17595;50.884;4.346;2022-08-01T08:09:13;23.70;99.90
30893;DHT22;17595;50.884;4.346;2022-08-01T08:11:39;23.90;99.90
30893;DHT22;17595;50.884;4.346;2022-08-01T08:14:04;24.00;99.90
30893;DHT22;17595;50.884;4.346;2022-08-01T08:16:30;24.00;99.90
30893;DHT22;17595;50.884;4.346;2022-08-01T08:18:56;24.10;99.90
30893;DHT22;17595;50.884;4.346;2022-08-01T08:21:21;24.10;99.90
30893;DHT22;17595;50.884;4.346;2022-08-01T08:23:47;24.00;99.90
30893;DHT22;17595;50.884;4.346;2022-08-01T08:26:32;23.90;99.90
30893;DHT22;17595;50.884;4.346;2022-08-01T08:28:58;23.60;99.90
30893;DHT22;17595;50.884;4.346;2022-08-01T08:31:24;23.70;99.90
30893;DHT22;17595;50.884;4.346;2022-08-01T08:33:49;23.30;99.90
30893;DHT22;17595;50.884;4.346;2022-08-01T08:36:16;23.30;99.90
30893;DHT22;17595;50.884;4.346;2022-08-01T08:38:41;23.30;99.90
30893;DHT22;17595;50.884;4.346;2022-08-01T08:41:08;23.50;99.90
30893;DHT22;17595;50.884;4.346;2022-08-01T08:43:35;23.60;99.90
30893;DHT22;17595;50.884;4.346;2022-08-01T08:46:01;23.70;99.90
30893;DHT22;17595;50.884;4.346;2022-08-01T08:48:28;23.80;99.90
30893;DHT22;17595;50.884;4.346;2022-08-01T08:50:55;23.70;99.90
30893;DHT22;17595;50.884;4.346;2022-08-01T08:53:22;23.60;99.90
30893;DHT22;17595;50.884;4.346;2022-08-01T08:55:49;23.60;99.90
30893;DHT22;17595;50.884;4.346;2022-08-01T08:58:18;23.80;99.90
30893;DHT22;17595;50.884;4.346;2022-08-01T09:00:43;23.60;99.90
30893;DHT22;17595;50.884;4.346;2022-08-01T09:03:09;23.50;99.90
30893;DHT22;17595;50.884;4.346;2022-08-01T09:05:35;23.10;99.90
30893;DHT22;17595;50.884;4.346;2022-08-01T09:08:01;22.80;99.90
30893;DHT22;17595;50.884;4.346;2022-08-01T09:10:26;22.80;99.90
30893;DHT22;17595;50.884;4.346;2022-08-01T09:13:03;22.60;99.90
30893;DHT22;17595;50.884;4.346;2022-08-01T09:15:50;22.60;99.90
30893;DHT22;17595;50.884;4.346;2022-08-01T09:18:42;22.70;99.90
30893;DHT22;17595;50.884;4.346;2022-08-01T09:21:18;22.70;99.90
30893;DHT22;17595;50.884;4.346;2022-08-01T09:23:45;22.90;99.90
30893;DHT22;17595;50.884;4.346;2022-08-01T09:26:13;23.00;99.90
30893;DHT22;17595;50.884;4.346;2022-08-01T09:28:40;23.00;99.90
30893;DHT22;17595;50.884;4.346;2022-08-01T09:31:12;23.00;99.90
30893;DHT22;17595;50.884;4.346;2022-08-01T09:33:59;23.40;99.90
30893;DHT22;17595;50.884;4.346;2022-08-01T09:36:50;24.00;99.90
30893;DHT22;17595;50.884;4.346;2022-08-01T09:41:52;24.10;99.90
30893;DHT22;17595;50.884;4.346;2022-08-01T09:44:18;24.30;99.90
30893;DHT22;17595;50.884;4.346;2022-08-01T09:46:55;24.50;99.90
30893;DHT22;17595;50.884;4.346;2022-08-01T09:49:35;24.70;99.90
30893;DHT22;17595;50.884;4.346;2022-08-01T09:54:38;24.70;99.90
30893;DHT22;17595;50.884;4.346;2022-08-01T09:57:15;24.80;99.90
30893;DHT22;17595;50.884;4.346;2022-08-01T09:59:52;24.50;99.90
30893;DHT22;17595;50.884;4.346;2022-08-01T10:02:32;24.40;99.90
30893;DHT22;17595;50.884;4.346;2022-08-01T10:04:59;24.10;99.90
30893;DHT22;17595;50.884;4.346;2022-08-01T10:07:25;24.20;99.90
30893;DHT22;17595;50.884;4.346;2022-08-01T10:09:50;24.20;99.90
30893;DHT22;17595;50.884;4.346;2022-08-01T10:12:19;24.20;99.90
30893;DHT22;17595;50.884;4.346;2022-08-01T10:14:47;24.50;99.90
30893;DHT22;17595;50.884;4.346;2022-08-01T10:17:19;24.70;99.90
30893;DHT22;17595;50.884;4.346;2022-08-01T10:19:46;25.00;99.90
30893;DHT22;17595;50.884;4.346;2022-08-01T10:22:13;24.70;99.90
30893;DHT22;17595;50.884;4.346;2022-08-01T10:24:46;24.80;99.90
30893;DHT22;17595;50.884;4.346;2022-08-01T10:27:14;25.00;99.90
30893;DHT22;17595;50.884;4.346;2022-08-01T10:32:13;26.20;99.90
30893;DHT22;17595;50.884;4.346;2022-08-01T10:34:38;26.00;99.90
30893;DHT22;17595;50.884;4.346;2022-08-01T10:37:05;25.90;99.90
30893;DHT22;17595;50.884;4.346;2022-08-01T10:39:33;25.90;99.90
30893;DHT22;17595;50.884;4.346;2022-08-01T10:42:00;26.00;99.90
30893;DHT22;17595;50.884;4.346;2022-08-01T10:44:28;26.30;99.90
30893;DHT22;17595;50.884;4.346;2022-08-01T10:47:09;26.40;99.90
30893;DHT22;17595;50.884;4.346;2022-08-01T10:49:45;26.30;99.90
30893;DHT22;17595;50.884;4.346;2022-08-01T10:52:19;26.50;99.90
30893;DHT22;17595;50.884;4.346;2022-08-01T10:54:45;26.70;99.90
30893;DHT22;17595;50.884;4.346;2022-08-01T10:57:11;25.90;99.90
30893;DHT22;17595;50.884;4.346;2022-08-01T10:59:48;25.20;99.90
30893;DHT22;17595;50.884;4.346;2022-08-01T11:02:28;24.80;99.90
30893;DHT22;17595;50.884;4.346;2022-08-01T11:04:58;24.40;99.90
30893;DHT22;17595;50.884;4.346;2022-08-01T11:08:21;24.30;99.90
30893;DHT22;17595;50.884;4.346;2022-08-01T11:10:42;24.40;99.90
30893;DHT22;17595;50.884;4.346;2022-08-01T11:13:08;24.60;99.90
30893;DHT22;17595;50.884;4.346;2022-08-01T11:15:37;24.50;99.90
30893;DHT22;17595;50.884;4.346;2022-08-01T11:18:31;24.70;99.90
30893;DHT22;17595;50.884;4.346;2022-08-01T11:21:00;25.00;99.90
30893;DHT22;17595;50.884;4.346;2022-08-01T11:23:28;25.40;99.90
30893;DHT22;17595;50.884;4.346;2022-08-01T11:28:22;25.00;99.90
30893;DHT22;17595;50.884;4.346;2022-08-01T11:30:52;24.70;99.90
30893;DHT22;17595;50.884;4.346;2022-08-01T11:38:49;24.70;99.90
30893;DHT22;17595;50.884;4.346;2022-08-01T11:41:25;24.90;99.90
30893;DHT22;17595;50.884;4.346;2022-08-01T11:43:57;25.30;99.90
30893;DHT22;17595;50.884;4.346;2022-08-01T11:52:11;25.90;99.90
30893;DHT22;17595;50.884;4.346;2022-08-01T11:54:46;25.80;99.90
30893;DHT22;17595;50.884;4.346;2022-08-01T11:59:45;25.90;99.90
30893;DHT22;17595;50.884;4.346;2022-08-01T12:02:19;25.70;99.90
30893;DHT22;17595;50.884;4.346;2022-08-01T12:04:47;25.50;99.90
30893;DHT22;17595;50.884;4.346;2022-08-01T12:07:14;25.40;99.90
30893;DHT22;17595;50.884;4.346;2022-08-01T12:09:39;25.30;99.90
30893;DHT22;17595;50.884;4.346;2022-08-01T12:12:06;25.20;99.90
30893;DHT22;17595;50.884;4.346;2022-08-01T12:14:31;25.30;99.90
30893;DHT22;17595;50.884;4.346;2022-08-01T12:16:57;25.50;99.90
30893;DHT22;17595;50.884;4.346;2022-08-01T12:19:24;25.50;99.90
30893;DHT22;17595;50.884;4.346;2022-08-01T12:22:09;25.50;99.90
30893;DHT22;17595;50.884;4.346;2022-08-01T12:24:37;25.80;99.90
30893;DHT22;17595;50.884;4.346;2022-08-01T12:27:04;25.90;99.90
30893;DHT22;17595;50.884;4.346;2022-08-01T12:29:39;25.80;99.90
30893;DHT22;17595;50.884;4.346;2022-08-01T12:32:39;25.80;99.90
30893;DHT22;17595;50.884;4.346;2022-08-01T12:35:10;25.80;99.90
30893;DHT22;17595;50.884;4.346;2022-08-01T12:37:44;26.00;99.90
30893;DHT22;17595;50.884;4.346;2022-08-01T12:42:40;26.10;99.90
30893;DHT22;17595;50.884;4.346;2022-08-01T12:45:11;26.30;99.90
30893;DHT22;17595;50.884;4.346;2022-08-01T12:47:38;26.60;99.90
30893;DHT22;17595;50.884;4.346;2022-08-01T12:50:11;26.20;99.90
30893;DHT22;17595;50.884;4.346;2022-08-01T12:52:38;25.90;99.90
30893;DHT22;17595;50.884;4.346;2022-08-01T12:55:08;25.90;99.90
30893;DHT22;17595;50.884;4.346;2022-08-01T12:57:36;25.80;99.90
30893;DHT22;17595;50.884;4.346;2022-08-01T13:00:14;25.90;99.90
30893;DHT22;17595;50.884;4.346;2022-08-01T13:02:41;26.10;99.90
30893;DHT22;17595;50.884;4.346;2022-08-01T13:05:07;26.40;99.90
30893;DHT22;17595;50.884;4.346;2022-08-01T13:10:04;26.80;99.90
30893;DHT22;17595;50.884;4.346;2022-08-01T13:12:30;26.60;99.90
30893;DHT22;17595;50.884;4.346;2022-08-01T13:14:56;26.00;99.90
30893;DHT22;17595;50.884;4.346;2022-08-01T13:17:32;25.80;99.90
30893;DHT22;17595;50.884;4.346;2022-08-01T13:19:58;26.10;99.90
30893;DHT22;17595;50.884;4.346;2022-08-01T13:22:37;26.00;99.90
30893;DHT22;17595;50.884;4.346;2022-08-01T13:25:13;25.80;99.90
30893;DHT22;17595;50.884;4.346;2022-08-01T13:27:39;25.60;99.90
30893;DHT22;17595;50.884;4.346;2022-08-01T13:30:16;25.60;99.90
30893;DHT22;17595;50.884;4.346;2022-08-01T13:33:04;25.50;99.90
30893;DHT22;17595;50.884;4.346;2022-08-01T13:35:29;25.60;99.90
30893;DHT22;17595;50.884;4.346;2022-08-01T13:37:56;25.30;99.90
30893;DHT22;17595;50.884;4.346;2022-08-01T13:40:26;25.20;99.90
30893;DHT22;17595;50.884;4.346;2022-08-01T13:42:53;25.20;99.90
30893;DHT22;17595;50.884;4.346;2022-08-01T13:45:20;25.10;99.90
30893;DHT22;17595;50.884;4.346;2022-08-01T13:47:45;25.20;99.90
30893;DHT22;17595;50.884;4.346;2022-08-01T13:50:11;25.30;99.90
30893;DHT22;17595;50.884;4.346;2022-08-01T13:52:36;25.50;99.90
30893;DHT22;17595;50.884;4.346;2022-08-01T13:55:02;25.90;99.90
30893;DHT22;17595;50.884;4.346;2022-08-01T13:57:29;26.20;99.90
30893;DHT22;17595;50.884;4.346;2022-08-01T13:59:54;26.30;99.90
30893;DHT22;17595;50.884;4.346;2022-08-01T14:02:20;26.10;99.90
30893;DHT22;17595;50.884;4.346;2022-08-01T14:04:46;26.20;99.90
30893;DHT22;17595;50.884;4.346;2022-08-01T14:07:12;26.10;99.90
30893;DHT22;17595;50.884;4.346;2022-08-01T14:09:38;26.00;99.90
30893;DHT22;17595;50.884;4.346;2022-08-01T14:12:04;26.20;99.90
30893;DHT22;17595;50.884;4.346;2022-08-01T14:14:29;26.00;99.70
30893;DHT22;17595;50.884;4.346;2022-08-01T14:16:56;26.00;99.90
30893;DHT22;17595;50.884;4.346;2022-08-01T14:19:22;26.00;99.40
30893;DHT22;17595;50.884;4.346;2022-08-01T14:21:47;26.00;99.30
30893;DHT22;17595;50.884;4.346;2022-08-01T14:24:13;26.00;99.70
30893;DHT22;17595;50.884;4.346;2022-08-01T14:26:38;25.80;99.90
30893;DHT22;17595;50.884;4.346;2022-08-01T14:29:04;25.80;99.90
30893;DHT22;17595;50.884;4.346;2022-08-01T14:31:30;25.70;99.90
30893;DHT22;17595;50.884;4.346;2022-08-01T14:33:55;26.00;99.90
30893;DHT22;17595;50.884;4.346;2022-08-01T14:36:21;25.80;99.10
30893;DHT22;17595;50.884;4.346;2022-08-01T14:38:47;25.60;99.20
30893;DHT22;17595;50.884;4.346;2022-08-01T14:41:13;25.60;99.50
30893;DHT22;17595;50.884;4.346;2022-08-01T14:43:39;25.70;99.90
30893;DHT22;17595;50.884;4.346;2022-08-01T14:46:05;25.80;99.60
30893;DHT22;17595;50.884;4.346;2022-08-01T14:48:31;25.90;99.10
30893;DHT22;17595;50.884;4.346;2022-08-01T14:50:57;25.80;99.30
30893;DHT22;17595;50.884;4.346;2022-08-01T14:53:24;26.00;99.00
30893;DHT22;17595;50.884;4.346;2022-08-01T14:55:50;26.00;98.90
30893;DHT22;17595;50.884;4.346;2022-08-01T14:58:15;26.40;98.60
30893;DHT22;17595;50.884;4.346;2022-08-01T15:00:41;26.00;98.30
30893;DHT22;17595;50.884;4.346;2022-08-01T15:03:06;26.00;98.40
30893;DHT22;17595;50.884;4.346;2022-08-01T15:05:32;26.00;98.40
30893;DHT22;17595;50.884;4.346;2022-08-01T15:07:58;26.30;98.40
30893;DHT22;17595;50.884;4.346;2022-08-01T15:10:23;26.40;98.10
30893;DHT22;17595;50.884;4.346;2022-08-01T15:12:49;26.50;97.30
30893;DHT22;17595;50.884;4.346;2022-08-01T15:15:15;26.10;97.30
30893;DHT22;17595;50.884;4.346;2022-08-01T15:17:40;25.90;97.40
30893;DHT22;17595;50.884;4.346;2022-08-01T15:20:06;26.10;97.70
30893;DHT22;17595;50.884;4.346;2022-08-01T15:22:33;26.50;97.60
30893;DHT22;17595;50.884;4.346;2022-08-01T15:25:00;26.30;97.70
30893;DHT22;17595;50.884;4.346;2022-08-01T15:27:27;26.10;97.80
30893;DHT22;17595;50.884;4.346;2022-08-01T15:29:53;26.30;98.60
30893;DHT22;17595;50.884;4.346;2022-08-01T15:32:19;26.40;97.80
30893;DHT22;17595;50.884;4.346;2022-08-01T15:34:45;26.50;97.60
30893;DHT22;17595;50.884;4.346;2022-08-01T15:37:11;26.30;97.50
30893;DHT22;17595;50.884;4.346;2022-08-01T15:39:38;26.20;97.70
30893;DHT22;17595;50.884;4.346;2022-08-01T15:42:07;26.10;97.80
30893;DHT22;17595;50.884;4.346;2022-08-01T15:44:34;25.90;97.50
30893;DHT22;17595;50.884;4.346;2022-08-01T15:47:00;25.90;97.80
30893;DHT22;17595;50.884;4.346;2022-08-01T15:49:27;25.90;97.80
30893;DHT22;17595;50.884;4.346;2022-08-01T15:51:53;26.10;97.80
30893;DHT22;17595;50.884;4.346;2022-08-01T15:54:19;26.10;97.40
30893;DHT22;17595;50.884;4.346;2022-08-01T15:56:44;26.20;97.50
30893;DHT22;17595;50.884;4.346;2022-08-01T15:59:10;26.20;97.70
30893;DHT22;17595;50.884;4.346;2022-08-01T16:01:36;25.90;97.00
30893;DHT22;17595;50.884;4.346;2022-08-01T16:04:04;25.80;97.40
30893;DHT22;17595;50.884;4.346;2022-08-01T16:06:29;25.90;97.00
30893;DHT22;17595;50.884;4.346;2022-08-01T16:08:55;25.90;97.00
30893;DHT22;17595;50.884;4.346;2022-08-01T16:11:21;25.90;97.00
30893;DHT22;17595;50.884;4.346;2022-08-01T16:13:48;25.80;97.20
30893;DHT22;17595;50.884;4.346;2022-08-01T16:16:14;25.70;97.20